Time;durP1;ratioP1;P1;durP2;ratioP2;P2;SDS_P1;SDS_P2;PMS_P1;PMS_P2;Temp;Humidity;BMP_temperature;BMP_pressure;BME280_temperature;BME280_humidity;BME280_pressure;Samples;Min_cycle;Max_cycle;Signal;HPM_P1;HPM_P2
2022/06/29 00:00:29;;;;;;;7.85;6.80;;;;;;;23.37;62.47;99672.15;1814042;79;21695;-82
2022/06/29 00:02:56;;;;;;;9.23;7.05;;;;;;;23.36;62.81;99674.46;1813995;78;21554;-82
2022/06/29 00:05:25;;;;;;;9.65;7.08;;;;;;;23.32;63.00;99677.06;1805427;79;22223;-82
2022/06/29 00:07:52;;;;;;;9.65;7.45;;;;;;;23.28;62.87;99680.97;1805686;79;21031;-81
2022/06/29 00:10:19;;;;;;;8.08;7.28;;;;;;;23.24;63.21;99679.55;1805228;78;20997;-81
2022/06/29 00:12:46;;;;;;;9.33;8.18;;;;;;;23.19;63.47;99676.41;1805512;79;21087;-82
2022/06/29 00:15:13;;;;;;;9.23;7.00;;;;;;;23.15;63.75;99674.98;1805676;78;20988;-82
2022/06/29 00:17:41;;;;;;;10.05;7.08;;;;;;;23.12;63.99;99670.70;1805384;79;21167;-82
2022/06/29 00:20:12;;;;;;;8.40;7.50;;;;;;;23.09;64.08;99672.30;1805673;79;21043;-82
2022/06/29 00:22:40;;;;;;;9.03;7.72;;;;;;;23.08;64.05;99668.40;1805380;79;20981;-81
2022/06/29 00:25:07;;;;;;;7.60;6.90;;;;;;;23.06;64.15;99667.19;1805400;79;21100;-81
2022/06/29 00:27:34;;;;;;;8.68;7.20;;;;;;;23.02;64.40;99674.27;1805523;79;21059;-81
2022/06/29 00:30:01;;;;;;;8.40;7.10;;;;;;;23.00;64.47;99679.27;1805507;79;21188;-81
2022/06/29 00:32:27;;;;;;;8.25;7.42;;;;;;;22.97;64.19;99674.16;1805585;79;21000;-80
2022/06/29 00:34:54;;;;;;;13.38;8.15;;;;;;;22.95;64.50;99678.80;1805280;79;20976;-81
2022/06/29 00:37:20;;;;;;;8.73;7.83;;;;;;;22.89;64.97;99680.65;1805672;79;21087;-82
2022/06/29 00:39:47;;;;;;;15.38;7.60;;;;;;;22.85;65.39;99683.70;1805302;79;21439;-81
2022/06/29 00:42:13;;;;;;;11.95;7.72;;;;;;;22.76;65.79;99680.84;1805469;78;22109;-82
2022/06/29 00:44:40;;;;;;;8.55;7.70;;;;;;;22.71;65.94;99683.52;1805371;78;21637;-82
2022/06/29 00:47:06;;;;;;;10.18;7.30;;;;;;;22.69;66.20;99678.78;1809729;78;21079;-82
2022/06/29 00:49:34;;;;;;;9.20;7.22;;;;;;;22.69;65.87;99686.83;1814031;78;20980;-82
2022/06/29 00:52:12;;;;;;;11.55;7.22;;;;;;;22.70;65.45;99684.52;1813845;79;21000;-81
2022/06/29 00:54:47;;;;;;;7.95;7.15;;;;;;;22.68;65.57;99690.47;1814247;78;22171;-82
2022/06/29 00:57:20;;;;;;;10.08;6.83;;;;;;;22.63;65.58;99686.85;1813824;79;21031;-82
2022/06/29 00:59:49;;;;;;;7.80;7.00;;;;;;;22.60;65.60;99691.97;1814059;79;21035;-81
2022/06/29 01:02:20;;;;;;;10.75;7.17;;;;;;;22.60;65.59;99687.94;1813843;79;20960;-83
2022/06/29 01:04:46;;;;;;;11.12;7.03;;;;;;;22.58;65.80;99696.61;1814213;78;21040;-81
2022/06/29 01:07:19;;;;;;;8.23;7.25;;;;;;;22.56;65.63;99685.16;1813852;79;21765;-82
2022/06/29 01:09:46;;;;;;;10.35;7.87;;;;;;;22.54;65.74;99687.09;1813911;78;21487;-81
2022/06/29 01:12:13;;;;;;;9.00;7.75;;;;;;;22.50;66.20;99691.02;1793251;78;21081;-82
2022/06/29 01:14:44;;;;;;;8.85;7.97;;;;;;;22.45;66.11;99690.04;1786968;79;21116;-82
2022/06/29 01:17:12;;;;;;;13.05;9.08;;;;;;;22.44;66.48;99692.84;1787076;79;21053;-81
2022/06/29 01:19:42;;;;;;;9.45;7.47;;;;;;;22.33;66.62;99687.53;1787033;80;21471;-82
2022/06/29 01:22:16;;;;;;;10.65;8.15;;;;;;;22.26;66.39;99698.70;1787228;80;21021;-81
2022/06/29 01:24:44;;;;;;;14.25;8.40;;;;;;;22.24;66.91;99697.98;1787090;79;21515;-82
2022/06/29 01:27:12;;;;;;;10.60;8.05;;;;;;;22.22;67.22;99693.20;1787344;80;20994;-81
2022/06/29 01:29:39;;;;;;;11.18;8.20;;;;;;;22.17;67.20;99691.38;1787166;80;21568;-82
2022/06/29 01:32:06;;;;;;;10.18;7.87;;;;;;;22.13;67.09;99693.96;1786968;79;21980;-81
2022/06/29 01:34:33;;;;;;;9.50;8.48;;;;;;;22.11;67.23;99701.28;1786869;80;21690;-81
2022/06/29 01:37:00;;;;;;;11.53;8.18;;;;;;;22.09;67.63;99701.89;1787031;80;21602;-81
2022/06/29 01:39:27;;;;;;;13.00;8.05;;;;;;;22.08;67.84;99699.68;1786839;80;21588;-82
2022/06/29 01:41:53;;;;;;;10.68;8.48;;;;;;;22.05;67.66;99705.28;1787111;79;21006;-82
2022/06/29 01:44:20;;;;;;;10.00;8.00;;;;;;;22.06;67.38;99706.16;1787418;79;21097;-82
2022/06/29 01:46:46;;;;;;;11.93;8.48;;;;;;;22.07;67.50;99705.16;1790331;79;21064;-82
2022/06/29 01:49:13;;;;;;;9.98;7.65;;;;;;;22.04;67.70;99710.75;1805196;79;21048;-82
2022/06/29 01:51:39;;;;;;;8.65;7.78;;;;;;;22.01;67.85;99711.87;1805510;79;21076;-82
2022/06/29 01:54:07;;;;;;;9.88;8.65;;;;;;;21.98;67.81;99713.94;1805204;79;21041;-83
2022/06/29 01:56:34;;;;;;;9.15;8.23;;;;;;;21.95;68.27;99707.48;1806570;78;21129;-82
2022/06/29 01:59:01;;;;;;;13.20;9.30;;;;;;;21.92;68.50;99711.23;1805651;79;21055;-81
2022/06/29 02:01:27;;;;;;;12.15;8.53;;;;;;;21.90;68.19;99713.20;1805230;79;20935;-82
2022/06/29 02:03:54;;;;;;;18.27;12.63;;;;;;;21.91;68.13;99715.41;1805701;79;21089;-83
2022/06/29 02:06:21;;;;;;;12.95;11.10;;;;;;;21.91;68.63;99726.97;1805544;79;21576;-82
2022/06/29 02:08:48;;;;;;;11.73;10.15;;;;;;;21.91;69.62;99722.95;1805684;79;21083;-83
2022/06/29 02:11:14;;;;;;;11.08;9.25;;;;;;;21.94;70.75;99728.53;1805365;79;21576;-83
2022/06/29 02:13:41;;;;;;;12.63;8.55;;;;;;;21.97;72.23;99730.98;1805293;79;21051;-82
2022/06/29 02:16:08;;;;;;;9.98;8.90;;;;;;;22.00;72.98;99732.08;1805712;79;21447;-82
2022/06/29 02:18:35;;;;;;;10.32;8.60;;;;;;;22.04;73.02;99740.23;1805423;79;21066;-82
2022/06/29 02:21:02;;;;;;;9.03;7.87;;;;;;;22.11;73.54;99740.59;1805164;79;21708;-82
2022/06/29 02:23:29;;;;;;;11.73;8.58;;;;;;;22.16;73.96;99747.81;1805135;79;21620;-82
2022/06/29 02:25:55;;;;;;;9.38;8.48;;;;;;;22.21;74.43;99755.84;1805692;79;21031;-82
2022/06/29 02:28:22;;;;;;;11.73;8.18;;;;;;;22.26;74.68;99763.03;1739566;82;21587;-82
2022/06/29 02:36:19;;;;;;;11.65;8.28;;;;;;;22.43;74.68;99753.67;1769672;81;21095;-81
2022/06/29 02:38:46;;;;;;;9.10;8.00;;;;;;;22.47;74.32;99755.61;1769575;81;21004;-82
2022/06/29 02:41:12;;;;;;;12.05;8.60;;;;;;;22.51;73.67;99754.41;1769465;81;21130;-82
2022/06/29 02:43:39;;;;;;;10.58;7.75;;;;;;;22.53;73.05;99752.44;1769524;81;21004;-82
2022/06/29 02:46:05;;;;;;;12.05;8.10;;;;;;;22.56;73.08;99753.55;1769521;81;21073;-82
2022/06/29 02:48:33;;;;;;;10.03;7.97;;;;;;;22.60;72.81;99754.98;1769730;81;21145;-82
2022/06/29 02:51:00;;;;;;;9.65;8.05;;;;;;;22.61;73.23;99758.05;1769785;81;20999;-81
2022/06/29 02:53:27;;;;;;;9.43;7.83;;;;;;;22.60;73.55;99753.64;1769782;81;21051;-82
2022/06/29 02:55:54;;;;;;;7.53;6.85;;;;;;;22.58;72.56;99751.58;1769780;81;21106;-82
2022/06/29 02:58:20;;;;;;;11.78;7.58;;;;;;;22.59;72.42;99750.61;1769466;81;21814;-82
2022/06/29 03:00:47;;;;;;;10.82;7.72;;;;;;;22.61;72.07;99751.80;1770031;81;21424;-82
2022/06/29 03:03:13;;;;;;;8.73;7.55;;;;;;;22.62;72.51;99763.75;1769959;81;21116;-81
2022/06/29 03:05:40;;;;;;;8.40;7.60;;;;;;;22.63;72.23;99755.23;1770004;81;21499;-82
2022/06/29 03:08:07;;;;;;;10.45;7.08;;;;;;;22.63;72.89;99754.73;1770031;81;21134;-82
2022/06/29 03:10:34;;;;;;;8.53;7.67;;;;;;;22.66;72.85;99754.96;1769885;81;21055;-82
2022/06/29 03:13:00;;;;;;;10.78;7.75;;;;;;;22.69;72.31;99752.53;1769879;81;21036;-82
2022/06/29 03:15:27;;;;;;;7.97;7.17;;;;;;;22.74;72.34;99759.72;1769812;81;21150;-82
2022/06/29 03:17:53;;;;;;;8.68;7.72;;;;;;;22.76;71.69;99755.95;1769654;81;21095;-82
2022/06/29 03:20:22;;;;;;;9.88;7.92;;;;;;;22.80;72.28;99753.86;1767313;81;21134;-82
2022/06/29 03:22:48;;;;;;;9.73;8.25;;;;;;;22.84;72.28;99749.94;1740822;81;21174;-82
2022/06/29 03:25:16;;;;;;;10.72;8.23;;;;;;;22.91;71.65;99753.80;1769877;81;21001;-82
2022/06/29 03:27:43;;;;;;;9.25;8.30;;;;;;;23.00;72.29;99749.53;1761446;81;21441;-82
2022/06/29 03:30:11;;;;;;;8.50;7.70;;;;;;;23.08;73.05;99743.55;1761278;81;21052;-82
2022/06/29 03:32:39;;;;;;;10.25;8.43;;;;;;;23.13;73.53;99746.70;1761325;80;21060;-82
2022/06/29 03:35:06;;;;;;;10.50;8.28;;;;;;;23.19;73.59;99739.48;1761725;81;21558;-81
2022/06/29 03:37:34;;;;;;;10.25;8.30;;;;;;;23.28;73.72;99742.72;1761216;81;21106;-81
2022/06/29 03:40:01;;;;;;;9.08;8.10;;;;;;;23.41;73.33;99741.70;1761749;81;21071;-82
2022/06/29 03:42:29;;;;;;;9.18;7.97;;;;;;;23.51;73.25;99741.28;1761230;81;21507;-82
2022/06/29 03:44:55;;;;;;;10.55;7.97;;;;;;;23.62;72.23;99737.66;1761301;80;21490;-82
2022/06/29 03:47:22;;;;;;;9.93;7.97;;;;;;;23.72;71.25;99740.79;1761417;81;21185;-82
2022/06/29 03:49:49;;;;;;;8.78;7.90;;;;;;;23.83;71.29;99747.94;1760796;80;21005;-83
2022/06/29 03:52:16;;;;;;;8.53;7.58;;;;;;;23.94;71.31;99738.97;1761024;80;21134;-82
2022/06/29 03:54:43;;;;;;;8.48;7.62;;;;;;;24.05;71.60;99737.52;1765333;79;22343;-83
2022/06/29 03:57:09;;;;;;;9.03;8.08;;;;;;;24.16;71.37;99741.09;1769867;80;21468;-82
2022/06/29 03:59:36;;;;;;;10.90;8.13;;;;;;;24.24;70.94;99742.15;1769445;81;21144;-82
2022/06/29 04:02:03;;;;;;;10.70;8.78;;;;;;;24.33;70.56;99744.52;1769395;81;21116;-83
2022/06/29 04:04:30;;;;;;;9.13;8.23;;;;;;;24.41;69.99;99737.96;1769669;81;21091;-82
2022/06/29 04:06:58;;;;;;;9.40;8.40;;;;;;;24.48;70.30;99730.20;1769534;81;21016;-82
2022/06/29 04:09:25;;;;;;;9.65;8.63;;;;;;;24.57;69.83;99725.34;1769306;81;21044;-82
2022/06/29 04:11:53;;;;;;;8.68;7.70;;;;;;;24.66;69.18;99729.05;1769627;79;21099;-82
2022/06/29 04:14:22;;;;;;;10.40;7.28;;;;;;;24.75;68.71;99724.19;1769511;79;21040;-82
2022/06/29 04:16:51;;;;;;;7.97;7.28;;;;;;;24.82;68.71;99725.33;1769380;79;21036;-82
2022/06/29 04:19:17;;;;;;;8.70;7.40;;;;;;;24.91;67.49;99718.75;1769603;79;21028;-81
2022/06/29 04:21:44;;;;;;;9.93;6.80;;;;;;;24.98;66.17;99720.75;1769627;81;20989;-81
2022/06/29 04:24:11;;;;;;;7.05;6.45;;;;;;;25.05;64.93;99718.35;1769581;81;21640;-80
2022/06/29 04:26:37;;;;;;;7.28;6.60;;;;;;;25.13;63.77;99713.59;1769757;79;21056;-81
2022/06/29 04:29:03;;;;;;;9.85;6.62;;;;;;;25.19;63.00;99723.29;1769480;80;21103;-81
2022/06/29 04:31:30;;;;;;;6.83;6.22;;;;;;;25.26;61.73;99725.42;1769891;81;21099;-81
2022/06/29 04:33:56;;;;;;;7.70;6.90;;;;;;;25.30;61.54;99713.39;1769242;79;20993;-82
2022/06/29 04:36:23;;;;;;;6.58;5.92;;;;;;;25.32;60.53;99714.13;1769391;79;21126;-81
2022/06/29 04:38:49;;;;;;;14.90;11.15;;;;;;;25.37;60.43;99717.23;1769826;81;21047;-82
2022/06/29 04:41:16;;;;;;;11.00;8.35;;;;;;;25.40;59.67;99711.53;1769356;80;21016;-81
2022/06/29 04:43:42;;;;;;;7.15;6.42;;;;;;;25.46;59.13;99715.01;1769685;81;21019;-81
2022/06/29 04:46:21;;;;;;;6.97;6.37;;;;;;;25.51;59.10;99715.42;1769642;81;21067;-80
2022/06/29 04:48:51;;;;;;;12.15;7.42;;;;;;;25.59;59.18;99720.11;1753378;81;22113;-80
2022/06/29 04:51:18;;;;;;;10.78;7.33;;;;;;;25.65;58.97;99710.58;1780427;80;21514;-81
2022/06/29 04:53:45;;;;;;;7.15;6.45;;;;;;;25.72;58.33;99718.42;1780323;79;21044;-81
2022/06/29 04:56:12;;;;;;;8.10;5.58;;;;;;;25.80;58.31;99714.50;1780678;80;21487;-81
2022/06/29 04:58:39;;;;;;;8.70;6.12;;;;;;;25.85;58.16;99710.87;1780648;80;21503;-81
2022/06/29 05:01:05;;;;;;;6.72;5.72;;;;;;;25.90;58.42;99707.23;1780693;80;21649;-81
2022/06/29 05:03:32;;;;;;;5.53;5.10;;;;;;;25.97;58.36;99710.73;1780606;79;21019;-80
2022/06/29 05:05:59;;;;;;;6.30;5.67;;;;;;;26.03;57.89;99712.84;1780719;80;21633;-81
2022/06/29 05:08:26;;;;;;;6.08;5.47;;;;;;;26.09;57.99;99708.19;1781249;80;21163;-81
2022/06/29 05:10:53;;;;;;;6.80;5.10;;;;;;;26.15;57.62;99708.95;1780596;80;21451;-80
2022/06/29 05:13:19;;;;;;;5.72;5.25;;;;;;;26.19;57.52;99704.95;1780678;79;21896;-81
2022/06/29 05:15:46;;;;;;;8.95;5.95;;;;;;;26.24;56.79;99708.55;1780571;80;21007;-79
2022/06/29 05:18:14;;;;;;;5.70;5.30;;;;;;;26.29;56.30;99708.47;1780450;80;21574;-81
2022/06/29 05:20:42;;;;;;;7.25;5.67;;;;;;;26.35;56.17;99713.75;1804496;78;21104;-81
2022/06/29 05:23:10;;;;;;;5.05;4.60;;;;;;;26.40;55.87;99714.66;1803524;79;20947;-81
2022/06/29 05:25:37;;;;;;;8.48;5.47;;;;;;;26.44;55.67;99716.88;1803545;79;21100;-81
2022/06/29 05:28:04;;;;;;;10.85;5.67;;;;;;;26.48;55.68;99723.70;1803468;79;21541;-75
2022/06/29 05:30:31;;;;;;;6.62;5.33;;;;;;;26.51;54.82;99712.61;1803069;79;21111;-75
2022/06/29 05:32:57;;;;;;;5.87;5.42;;;;;;;26.54;55.31;99718.69;1803471;79;21103;-75
2022/06/29 05:35:24;;;;;;;6.22;5.62;;;;;;;26.56;55.04;99717.52;1803311;79;20993;-75
2022/06/29 05:37:51;;;;;;;8.13;5.85;;;;;;;26.58;55.01;99714.67;1803310;79;21742;-75
2022/06/29 05:40:18;;;;;;;7.37;5.28;;;;;;;26.60;55.46;99716.23;1803297;79;21570;-75
2022/06/29 05:42:45;;;;;;;13.10;6.03;;;;;;;26.63;56.08;99721.38;1803576;79;20985;-75
2022/06/29 05:45:11;;;;;;;8.58;6.33;;;;;;;26.65;55.82;99719.36;1803368;79;21492;-75
2022/06/29 05:47:38;;;;;;;5.90;5.40;;;;;;;26.68;56.06;99727.67;1803836;79;20989;-75
2022/06/29 05:50:09;;;;;;;7.83;6.08;;;;;;;26.72;56.04;99729.05;1816356;78;21176;-75
2022/06/29 05:52:34;;;;;;;9.40;6.20;;;;;;;26.75;56.09;99722.48;1816284;78;21067;-75
2022/06/29 05:55:01;;;;;;;10.45;6.60;;;;;;;26.78;56.69;99723.53;1816723;78;21028;-75
2022/06/29 05:57:28;;;;;;;9.43;6.45;;;;;;;26.83;56.82;99729.32;1816364;78;21044;-75
2022/06/29 05:59:55;;;;;;;9.50;6.90;;;;;;;26.88;57.23;99732.41;1816705;78;21708;-77
2022/06/29 06:02:21;;;;;;;7.20;6.50;;;;;;;26.93;57.64;99732.80;1817299;77;21222;-77
2022/06/29 06:04:48;;;;;;;10.05;6.72;;;;;;;26.99;58.05;99730.84;1816612;79;21055;-77
2022/06/29 06:07:14;;;;;;;8.68;6.67;;;;;;;27.08;57.62;99730.92;1816472;79;21082;-77
2022/06/29 06:09:42;;;;;;;8.28;7.25;;;;;;;27.12;57.37;99726.42;1816223;79;21066;-77
2022/06/29 06:12:09;;;;;;;8.50;7.25;;;;;;;27.19;57.74;99738.29;1816795;79;21105;-76
2022/06/29 06:14:35;;;;;;;10.15;7.15;;;;;;;27.26;57.88;99738.52;1739121;82;21104;-76
2022/06/29 06:17:02;;;;;;;14.00;7.15;;;;;;;27.32;58.09;99736.59;1735355;82;21001;-76
2022/06/29 06:19:29;;;;;;;8.38;6.65;;;;;;;27.38;57.86;99730.54;1805312;79;21078;-76
2022/06/29 06:21:55;;;;;;;13.90;6.83;;;;;;;27.46;57.31;99734.34;1805011;79;20976;-76
2022/06/29 06:24:21;;;;;;;7.10;6.40;;;;;;;27.52;57.17;99729.63;1805244;79;21051;-76
2022/06/29 06:26:48;;;;;;;9.65;6.42;;;;;;;27.56;56.74;99729.68;1805172;79;21793;-76
2022/06/29 06:29:15;;;;;;;9.80;6.60;;;;;;;27.62;56.67;99724.97;1738982;82;22212;-76
2022/06/29 06:31:41;;;;;;;12.28;6.58;;;;;;;27.70;56.65;99718.27;1769491;81;21510;-76
2022/06/29 06:34:07;;;;;;;10.85;6.97;;;;;;;27.76;56.50;99714.95;1770083;81;21028;-76
2022/06/29 06:36:35;;;;;;;7.25;6.37;;;;;;;27.84;55.98;99703.83;1769481;81;21633;-76
2022/06/29 06:39:01;;;;;;;10.10;6.10;;;;;;;27.92;55.94;99706.58;1769982;81;21149;-76
2022/06/29 06:41:27;;;;;;;8.18;6.12;;;;;;;27.97;55.87;99702.92;1769553;81;20992;-76
2022/06/29 06:43:59;;;;;;;7.20;6.10;;;;;;;28.04;55.67;99705.34;1769686;81;21067;-76
2022/06/29 06:46:25;;;;;;;14.33;6.50;;;;;;;28.12;55.60;99691.83;1770115;81;21087;-76
2022/06/29 06:48:53;;;;;;;10.25;6.42;;;;;;;28.21;54.95;99698.63;1767046;81;21036;-76
2022/06/29 06:51:23;;;;;;;7.70;6.05;;;;;;;28.29;54.69;99696.80;1762888;81;21186;-76
2022/06/29 06:53:50;;;;;;;7.40;5.95;;;;;;;28.38;54.34;99697.70;1762545;81;21468;-76
2022/06/29 06:56:16;;;;;;;7.37;6.40;;;;;;;28.44;54.20;99688.07;1762690;81;21471;-76
2022/06/29 06:58:43;;;;;;;7.55;5.53;;;;;;;28.50;54.11;99690.97;1762650;81;21066;-76
2022/06/29 07:01:10;;;;;;;6.80;6.20;;;;;;;28.58;54.31;99690.67;1762670;81;21441;-76
2022/06/29 07:03:37;;;;;;;8.60;5.78;;;;;;;28.65;54.19;99684.95;1762664;81;21743;-76
2022/06/29 07:06:06;;;;;;;7.08;5.62;;;;;;;28.73;53.37;99683.59;1762695;81;21698;-75
2022/06/29 07:08:34;;;;;;;6.70;6.10;;;;;;;28.80;52.41;99687.34;1763068;81;21494;-76
2022/06/29 07:11:02;;;;;;;8.65;5.92;;;;;;;28.86;52.29;99677.18;1762724;81;21027;-76
2022/06/29 07:13:29;;;;;;;6.37;5.30;;;;;;;28.93;52.29;99683.30;1762662;81;21012;-76
2022/06/29 07:15:56;;;;;;;7.42;5.85;;;;;;;28.98;51.71;99676.34;1762730;81;21201;-77
2022/06/29 07:18:24;;;;;;;9.68;5.80;;;;;;;29.06;52.54;99674.16;1741295;81;21071;-76
2022/06/29 07:20:51;;;;;;;6.97;6.15;;;;;;;29.16;52.28;99679.41;1762960;81;21043;-76
2022/06/29 07:23:17;;;;;;;6.70;6.10;;;;;;;29.25;52.84;99677.92;1762877;81;21087;-76
2022/06/29 07:25:44;;;;;;;11.78;5.78;;;;;;;29.35;51.75;99675.53;1762694;81;21102;-76
2022/06/29 07:28:11;;;;;;;6.90;5.80;;;;;;;29.43;51.27;99672.30;1757841;81;21194;-76
2022/06/29 07:30:37;;;;;;;7.12;5.05;;;;;;;29.51;51.18;99678.23;1742016;81;21112;-75
2022/06/29 07:33:04;;;;;;;10.08;5.55;;;;;;;29.57;50.30;99676.20;1741696;82;21033;-76
2022/06/29 07:35:31;;;;;;;6.30;5.67;;;;;;;29.61;50.63;99678.89;1741357;82;21171;-76
2022/06/29 07:37:58;;;;;;;7.65;5.65;;;;;;;29.67;50.95;99679.21;1741531;80;21027;-76
2022/06/29 07:40:25;;;;;;;12.58;5.85;;;;;;;29.72;50.41;99680.89;1741873;82;21090;-76
2022/06/29 07:42:51;;;;;;;7.83;5.75;;;;;;;29.77;50.16;99679.41;1741388;82;21108;-76
2022/06/29 07:45:17;;;;;;;6.45;5.72;;;;;;;29.81;50.14;99677.19;1741458;82;21605;-75
2022/06/29 07:47:44;;;;;;;6.78;5.65;;;;;;;29.86;49.33;99676.16;1741731;82;21595;-76
2022/06/29 07:50:11;;;;;;;6.60;5.40;;;;;;;29.89;49.21;99674.45;1732292;82;21609;-76
2022/06/29 07:52:40;;;;;;;9.93;5.67;;;;;;;29.96;49.43;99667.82;1729430;82;21822;-75
2022/06/29 07:55:07;;;;;;;6.35;5.80;;;;;;;30.04;49.44;99675.06;1729554;83;21135;-76
2022/06/29 07:57:34;;;;;;;5.45;4.92;;;;;;;30.12;49.36;99669.09;1729493;82;21151;-75
2022/06/29 08:00:04;;;;;;;6.05;4.90;;;;;;;30.19;48.39;99669.23;1729599;82;20962;-76
2022/06/29 08:02:34;;;;;;;5.08;4.50;;;;;;;30.25;47.72;99670.41;1729543;82;21115;-76
2022/06/29 08:05:01;;;;;;;6.12;4.60;;;;;;;30.29;46.43;99659.52;1729651;82;21097;-76
2022/06/29 08:07:28;;;;;;;6.25;4.70;;;;;;;30.36;46.27;99661.39;1722805;81;21098;-76
2022/06/29 08:09:55;;;;;;;5.20;4.80;;;;;;;30.42;45.24;99655.75;1714848;83;21024;-77
2022/06/29 08:12:23;;;;;;;7.10;4.95;;;;;;;30.41;45.08;99657.28;1705799;83;21052;-76
2022/06/29 08:14:49;;;;;;;5.58;4.97;;;;;;;30.44;45.15;99661.00;1735033;82;20989;-75
2022/06/29 08:17:15;;;;;;;8.53;5.10;;;;;;;30.49;45.17;99658.59;1734731;82;21187;-77
2022/06/29 08:19:42;;;;;;;6.65;5.08;;;;;;;30.55;45.76;99659.25;1735126;82;21182;-75
2022/06/29 08:22:09;;;;;;;7.45;5.17;;;;;;;30.63;45.95;99648.34;1734773;82;21130;-75
2022/06/29 08:24:35;;;;;;;5.47;5.08;;;;;;;30.72;46.03;99654.03;1734908;82;21063;-76
2022/06/29 08:27:02;;;;;;;8.15;5.33;;;;;;;30.79;45.73;99647.88;1735300;82;21102;-77
2022/06/29 08:29:28;;;;;;;5.87;5.28;;;;;;;30.84;44.97;99650.90;1734938;82;21087;-76
2022/06/29 08:31:55;;;;;;;5.40;4.90;;;;;;;30.82;45.10;99657.03;1734954;82;21000;-75
2022/06/29 08:34:30;;;;;;;6.95;5.05;;;;;;;30.85;46.20;99653.92;1735057;82;21130;-76
2022/06/29 08:36:53;;;;;;;9.15;5.35;;;;;;;30.95;46.78;99655.95;1733212;82;21079;-77
2022/06/29 08:39:19;;;;;;;5.60;5.10;;;;;;;31.05;46.52;99653.82;1735087;82;21098;-76
2022/06/29 08:41:45;;;;;;;5.40;4.90;;;;;;;31.17;47.13;99650.64;1734741;82;21264;-76
2022/06/29 08:44:12;;;;;;;6.45;4.58;;;;;;;31.27;46.50;99659.38;1734979;82;21044;-76
2022/06/29 08:46:38;;;;;;;4.95;4.55;;;;;;;31.36;44.35;99662.89;1735092;82;21084;-75
2022/06/29 08:49:06;;;;;;;4.78;4.37;;;;;;;31.38;44.06;99658.11;1744192;80;21035;-76
2022/06/29 08:51:34;;;;;;;4.20;4.00;;;;;;;31.43;42.80;99659.75;1745503;82;21064;-76
2022/06/29 08:54:04;;;;;;;5.70;4.35;;;;;;;31.44;41.33;99656.85;1825810;78;21138;-76
2022/06/29 08:56:31;;;;;;;4.75;4.25;;;;;;;31.49;41.73;99661.74;1825322;78;21058;-76
2022/06/29 08:58:57;;;;;;;7.05;5.67;;;;;;;31.55;42.32;99656.09;1825383;78;21038;-76
2022/06/29 09:01:24;;;;;;;12.05;5.70;;;;;;;31.59;43.54;99654.68;1724202;82;21103;-76
2022/06/29 09:03:51;;;;;;;5.37;4.83;;;;;;;31.71;43.50;99655.93;1778231;80;20951;-76
2022/06/29 09:06:17;;;;;;;9.25;4.70;;;;;;;31.82;43.19;99649.16;1778517;80;21120;-75
2022/06/29 09:08:44;;;;;;;9.43;4.03;;;;;;;31.90;42.13;99650.95;1777980;80;21114;-75
2022/06/29 09:11:30;;;;;;;9.43;4.20;;;;;;;31.98;42.15;99650.86;1778421;80;20989;-76
2022/06/29 09:14:17;;;;;;;6.25;4.42;;;;;;;32.07;42.52;99653.82;1745629;82;21098;-76
2022/06/29 09:17:00;;;;;;;6.72;4.08;;;;;;;32.19;41.67;99656.38;1825761;78;21041;-77
2022/06/29 09:19:36;;;;;;;3.95;3.70;;;;;;;32.29;41.09;99655.25;1825424;78;21870;-77
2022/06/29 09:22:03;;;;;;;5.83;4.33;;;;;;;32.35;39.18;99659.41;1824224;78;21050;-77
2022/06/29 09:24:32;;;;;;;5.87;4.15;;;;;;;32.38;39.82;99656.80;1825370;78;21105;-77
2022/06/29 09:27:02;;;;;;;4.45;3.50;;;;;;;32.44;39.41;99650.60;1827740;77;20990;-76
2022/06/29 09:29:32;;;;;;;4.00;3.70;;;;;;;32.50;37.50;99647.65;1825580;78;21065;-76
2022/06/29 09:32:07;;;;;;;3.80;3.50;;;;;;;32.54;37.14;99648.41;1825404;78;21090;-76
2022/06/29 09:34:47;;;;;;;5.17;3.72;;;;;;;32.59;35.81;99643.22;1825538;78;21058;-76
2022/06/29 09:37:20;;;;;;;4.65;3.30;;;;;;;32.57;35.61;99638.49;1824219;78;21140;-76
2022/06/29 09:39:54;;;;;;;3.80;3.50;;;;;;;32.61;35.45;99632.17;1777520;80;20996;-76
2022/06/29 09:42:25;;;;;;;3.42;3.02;;;;;;;32.67;35.36;99633.30;1778594;80;21050;-76
2022/06/29 09:44:52;;;;;;;3.02;2.70;;;;;;;32.74;34.67;99635.03;1778378;80;21227;-76
2022/06/29 09:47:20;;;;;;;7.17;3.27;;;;;;;32.86;33.27;99636.71;1778210;80;21051;-76
2022/06/29 09:49:59;;;;;;;3.87;3.58;;;;;;;32.96;33.85;99624.95;1774966;80;21001;-76
2022/06/29 09:52:24;;;;;;;4.65;3.40;;;;;;;33.11;34.09;99621.31;1769138;81;21067;-76
2022/06/29 09:54:57;;;;;;;3.45;3.17;;;;;;;33.22;33.64;99619.95;1769841;80;21086;-76
2022/06/29 09:57:28;;;;;;;5.20;3.12;;;;;;;33.29;33.46;99618.97;1804996;79;21087;-76
2022/06/29 10:02:53;;;;;;;5.22;3.60;;;;;;;33.49;34.15;99619.64;1805214;79;21062;-76
2022/06/29 10:05:22;;;;;;;7.03;3.85;;;;;;;33.60;34.08;99610.88;1805384;79;20988;-76
2022/06/29 10:07:51;;;;;;;3.80;3.08;;;;;;;33.65;32.51;99608.38;1805317;78;21560;-75
2022/06/29 10:10:21;;;;;;;5.78;3.30;;;;;;;33.67;33.35;99603.59;1805514;79;21120;-76
2022/06/29 10:13:41;;;;;;;4.22;3.40;;;;;;;33.79;32.65;99611.22;1809887;78;21098;-76
2022/06/29 10:16:32;;;;;;;6.45;3.30;;;;;;;33.84;32.35;99604.63;1805265;79;21051;-76
2022/06/29 10:19:50;;;;;;;4.15;3.33;;;;;;;33.98;33.45;99598.73;1813271;79;21030;-76
2022/06/29 10:22:16;;;;;;;3.87;3.40;;;;;;;34.11;33.48;99606.11;1813762;79;21086;-76
2022/06/29 10:25:09;;;;;;;4.50;3.33;;;;;;;34.22;32.56;99601.45;1737093;82;21565;-76
2022/06/29 10:27:37;;;;;;;10.37;4.70;;;;;;;34.29;32.13;99600.11;1805426;79;20956;-76
2022/06/29 10:30:21;;;;;;;6.08;4.03;;;;;;;34.30;31.46;99590.34;1805418;79;21118;-76
2022/06/29 10:32:49;;;;;;;8.93;4.03;;;;;;;34.29;31.20;99585.09;1805198;79;21238;-76
2022/06/29 10:35:15;;;;;;;9.95;3.60;;;;;;;34.26;30.96;99575.41;1805418;79;21031;-76
2022/06/29 10:37:49;;;;;;;4.30;3.52;;;;;;;34.28;31.84;99580.16;1813916;79;21494;-76
2022/06/29 10:40:19;;;;;;;4.28;3.85;;;;;;;34.30;30.95;99567.13;1813414;79;20983;-76
2022/06/29 10:45:44;;;;;;;8.13;3.80;;;;;;;34.45;31.09;99562.86;1809503;79;21073;-76
2022/06/29 10:48:12;;;;;;;4.55;4.17;;;;;;;34.52;30.94;99549.21;1813776;79;21062;-76
2022/06/29 10:50:41;;;;;;;10.15;3.47;;;;;;;34.55;30.63;99543.30;1813461;78;22059;-76
2022/06/29 10:53:15;;;;;;;7.20;3.98;;;;;;;34.60;30.55;99543.01;1812901;79;20992;-76
2022/06/29 10:55:51;;;;;;;3.83;3.60;;;;;;;34.66;29.63;99536.39;1813291;79;21031;-76
2022/06/29 10:58:18;;;;;;;3.65;3.35;;;;;;;34.69;28.96;99535.97;1813035;79;21162;-76
2022/06/29 11:00:53;;;;;;;3.60;3.30;;;;;;;34.67;30.08;99533.98;1812379;79;21034;-76
2022/06/29 11:03:23;;;;;;;3.85;3.37;;;;;;;34.74;31.15;99545.25;1804787;79;22171;-76
2022/06/29 11:15:39;;;;;;;5.10;3.80;;;;;;;35.08;29.99;99543.86;1805542;79;21043;-76
2022/06/29 11:16:36;;;;;;;4.83;3.10;;;;;;;35.15;29.17;99537.34;1805371;79;21796;-76
2022/06/29 11:19:04;;;;;;;5.58;3.67;;;;;;;35.24;28.78;99522.94;1813275;79;21017;-76
2022/06/29 11:21:30;;;;;;;4.22;3.42;;;;;;;35.34;28.46;99521.96;1805454;79;21116;-76
2022/06/29 11:24:04;;;;;;;3.62;3.30;;;;;;;35.41;28.93;99512.37;1805374;79;21092;-75
2022/06/29 11:26:34;;;;;;;3.75;3.40;;;;;;;35.48;28.51;99500.86;1805974;78;21131;-76
2022/06/29 11:29:02;;;;;;;3.58;3.27;;;;;;;35.55;28.71;99498.64;1805391;79;21200;-75
2022/06/29 11:31:29;;;;;;;3.80;3.37;;;;;;;35.62;28.66;99496.16;1805776;79;21551;-76
2022/06/29 11:33:55;;;;;;;6.08;3.50;;;;;;;35.66;28.31;99495.23;1805329;79;21618;-75
2022/06/29 11:36:28;;;;;;;4.60;3.20;;;;;;;35.64;28.28;99514.59;1805580;79;21040;-76
2022/06/29 11:38:57;;;;;;;3.85;3.42;;;;;;;35.54;28.15;99500.52;1805324;79;21065;-75
2022/06/29 11:43:03;;;;;;;5.92;3.52;;;;;;;35.55;29.26;99491.80;1805351;79;21133;-76
2022/06/29 11:44:04;;;;;;;4.42;3.50;;;;;;;35.64;28.73;99487.74;1805523;79;21064;-75
2022/06/29 11:46:35;;;;;;;4.35;3.12;;;;;;;35.66;28.97;99478.81;1803455;79;20995;-76
2022/06/29 11:51:59;;;;;;;10.10;3.65;;;;;;;35.72;29.15;99472.44;1811102;78;20958;-75
2022/06/29 11:54:49;;;;;;;3.55;3.27;;;;;;;35.72;29.50;99466.97;1810778;79;21183;-75
2022/06/29 11:57:17;;;;;;;3.90;3.00;;;;;;;35.64;29.17;99470.81;1811212;79;21089;-77
2022/06/29 11:59:46;;;;;;;3.52;3.22;;;;;;;35.53;29.17;99454.53;1811695;79;21195;-76